Time;durP1;ratioP1;P1;durP2;ratioP2;P2;SDS_P1;SDS_P2;PMS_P1;PMS_P2;Temp;Humidity;BMP_temperature;BMP_pressure;BME280_temperature;BME280_humidity;BME280_pressure;Samples;Min_cycle;Max_cycle;Signal;HPM_P1;HPM_P2
2021/07/20 06:48:03;;;;;;;;;29.67;24.00;;;;;22.50;54.86;101667.19;4893529;24;46505;-81
2021/07/20 06:50:28;;;;;;;;;30.00;28.67;;;;;22.52;54.65;101668.06;4789420;29;45326;-82
2021/07/20 06:52:53;;;;;;;;;31.33;27.67;;;;;22.54;54.56;101668.00;4790254;29;45815;-81
2021/07/20 06:55:22;;;;;;;;;30.00;28.67;;;;;22.57;55.41;101673.31;4790366;29;45439;-81
2021/07/20 06:57:48;;;;;;;;;26.00;25.00;;;;;22.60;54.41;101672.38;4790023;29;46516;-83
2021/07/20 07:00:19;;;;;;;;;30.00;25.33;;;;;22.62;53.70;101670.53;4773576;29;45392;-82
2021/07/20 07:02:51;;;;;;;;;29.33;25.00;;;;;22.62;54.08;101675.91;4790029;29;45231;-82
2021/07/20 07:05:17;;;;;;;;;32.00;26.00;;;;;22.63;54.71;101675.88;4790136;29;45431;-82
2021/07/20 07:07:46;;;;;;;;;29.00;26.33;;;;;22.64;54.46;101674.97;4789896;29;47148;-83
2021/07/20 07:10:14;;;;;;;;;31.33;29.67;;;;;22.65;53.87;101676.72;4790165;29;45271;-83
2021/07/20 07:12:40;;;;;;;;;28.67;24.67;;;;;22.69;54.04;101677.59;4789689;29;45308;-83
2021/07/20 07:15:08;;;;;;;;;24.00;22.00;;;;;22.70;54.89;101684.72;4790108;29;45615;-82
2021/07/20 07:17:35;;;;;;;;;25.33;24.67;;;;;22.72;54.69;101682.88;4789666;29;45274;-82
2021/07/20 07:20:03;;;;;;;;;23.67;23.00;;;;;22.75;54.30;101687.31;4789664;29;45247;-82
2021/07/20 07:22:31;;;;;;;;;28.67;25.00;;;;;22.75;54.69;101685.53;4789934;29;45305;-82
2021/07/20 07:24:58;;;;;;;;;27.67;24.67;;;;;22.74;54.59;101686.44;4789891;29;45463;-82
2021/07/20 07:27:24;;;;;;;;;30.67;28.67;;;;;22.78;54.74;101685.47;4789781;29;46430;-83
2021/07/20 07:29:54;;;;;;;;;30.00;27.00;;;;;22.79;54.12;101678.31;4789758;29;45247;-82
2021/07/20 07:32:21;;;;;;;;;29.67;27.67;;;;;22.78;54.87;101680.09;4801253;24;45607;-83
2021/07/20 07:34:48;;;;;;;;;27.33;25.67;;;;;22.84;54.90;101687.16;4809683;29;45379;-83
2021/07/20 07:37:21;;;;;;;;;32.67;26.33;;;;;22.85;54.23;101688.91;4809717;29;45368;-82
2021/07/20 07:39:51;;;;;;;;;33.33;26.33;;;;;22.88;54.95;101698.69;4826022;29;45323;-84
2021/07/20 07:42:18;;;;;;;;;27.33;24.00;;;;;22.91;55.32;101695.94;4826113;29;45250;-83
2021/07/20 07:44:46;;;;;;;;;34.00;29.67;;;;;22.93;55.38;101691.44;4826064;29;45520;-83
2021/07/20 07:47:13;;;;;;;;;28.33;27.00;;;;;22.95;54.46;101689.59;4825508;29;46354;-84
2021/07/20 07:49:39;;;;;;;;;35.33;29.00;;;;;22.94;54.96;101687.84;4826056;29;45250;-84
2021/07/20 07:52:08;;;;;;;;;36.67;29.67;;;;;22.97;54.20;101687.78;4826074;29;45251;-83
2021/07/20 07:54:34;;;;;;;;;33.67;29.33;;;;;23.02;54.36;101688.59;4825978;29;45388;-82
2021/07/20 07:57:00;;;;;;;;;34.33;29.33;;;;;23.04;55.02;101688.53;4825774;29;46246;-82
2021/07/20 07:59:28;;;;;;;;;35.00;27.67;;;;;23.10;54.90;101695.56;4825827;29;45417;-83
2021/07/20 08:01:55;;;;;;;;;36.67;30.00;;;;;23.14;54.32;101699.97;4825838;29;45245;-83
2021/07/20 08:04:25;;;;;;;;;38.00;30.00;;;;;23.16;54.68;101700.81;4829677;29;45370;-83
2021/07/20 08:06:52;;;;;;;;;50.25;38.25;;;;;23.21;54.90;101690.00;4829076;29;45507;-84
2021/07/20 08:09:20;;;;;;;;;51.75;40.25;;;;;23.21;55.01;101685.53;4828954;29;45265;-83
2021/07/20 08:11:47;;;;;;;;;52.00;42.00;;;;;23.28;54.39;101688.06;4828893;29;45194;-83
2021/07/20 08:14:14;;;;;;;;;47.25;37.75;;;;;23.33;53.98;101694.25;4829257;29;45225;-84
2021/07/20 08:16:45;;;;;;;;;44.75;35.00;;;;;23.36;54.26;101680.75;4828531;29;45388;-83
2021/07/20 08:19:11;;;;;;;;;47.00;36.00;;;;;23.43;54.39;101682.41;4829021;29;45408;-84
2021/07/20 08:21:38;;;;;;;;;40.00;33.00;;;;;23.53;55.22;101687.56;4828755;29;45224;-84
2021/07/20 08:24:04;;;;;;;;;38.25;32.00;;;;;23.58;54.30;101688.38;4829059;29;45346;-83
2021/07/20 16:21:33;;;;;;;;;14.00;11.50;;;;;27.85;42.22;101550.16;5843526;24;45377;31
2021/07/20 17:59:18;;;;;;;;;18.67;15.33;;;;;27.06;45.90;101579.34;4833844;24;47215;-82
2021/07/20 18:01:44;;;;;;;;;16.67;15.00;;;;;27.04;45.16;101577.63;4789567;29;46380;-81
2021/07/20 18:04:13;;;;;;;;;14.00;13.00;;;;;27.03;44.93;101578.59;4808295;29;45865;-82
2021/07/20 18:06:39;;;;;;;;;13.67;12.00;;;;;27.02;45.52;101587.63;4792365;29;45536;-82
2021/07/20 18:09:05;;;;;;;;;17.33;12.33;;;;;26.97;45.15;101593.19;4808523;29;45813;-83
2021/07/20 18:11:31;;;;;;;;;14.67;11.00;;;;;26.97;45.18;101590.47;4809161;29;45523;-82
2021/07/20 18:13:56;;;;;;;;;14.33;12.00;;;;;26.95;44.87;101586.97;4808713;29;45995;-82
2021/07/20 18:16:22;;;;;;;;;16.67;13.33;;;;;26.92;44.94;101589.78;4808802;29;45451;-82
2021/07/20 18:18:47;;;;;;;;;14.67;12.33;;;;;26.92;45.54;101592.50;4809145;29;45358;-83
2021/07/20 18:21:13;;;;;;;;;16.33;12.67;;;;;26.87;44.94;101586.38;4809037;29;45267;-83
2021/07/20 18:23:38;;;;;;;;;15.00;11.00;;;;;26.84;44.43;101587.41;4808411;29;46010;-83
2021/07/20 18:26:04;;;;;;;;;15.33;14.00;;;;;26.82;45.38;101584.75;4809071;29;45216;-82
2021/07/20 18:28:29;;;;;;;;;14.67;13.33;;;;;26.80;45.05;101589.31;4808897;29;45224;-82
2021/07/20 18:30:55;;;;;;;;;13.00;12.33;;;;;26.80;45.14;101588.47;4808935;29;45156;-82
2021/07/20 18:33:23;;;;;;;;;15.00;14.00;;;;;26.79;44.95;101592.06;4808307;29;45500;-82
2021/07/20 18:35:49;;;;;;;;;15.00;14.33;;;;;26.78;45.11;101590.34;4808461;29;45443;-82
2021/07/20 18:38:15;;;;;;;;;14.33;10.00;;;;;26.74;45.48;101589.53;4808312;29;45307;-82
2021/07/20 18:40:40;;;;;;;;;13.00;11.33;;;;;26.71;45.01;101585.13;4808907;29;45373;-82
2021/07/20 18:43:05;;;;;;;;;13.00;12.67;;;;;26.72;45.64;101588.72;4808458;29;46229;-82
2021/07/20 18:45:31;;;;;;;;;13.33;11.67;;;;;26.70;45.99;101590.59;4808192;29;45442;-82
2021/07/20 18:47:56;;;;;;;;;12.00;12.00;;;;;26.64;45.50;101575.53;4808044;29;45286;-82
2021/07/20 18:50:22;;;;;;;;;14.67;12.00;;;;;26.64;45.68;101580.94;4808673;29;45426;-82
2021/07/20 18:52:48;;;;;;;;;14.33;14.00;;;;;26.62;45.36;101581.91;4808360;29;45350;-82
2021/07/20 18:55:14;;;;;;;;;13.33;12.33;;;;;26.60;45.76;101590.06;4807949;29;45257;-82
2021/07/20 18:57:40;;;;;;;;;21.00;16.33;;;;;26.58;45.42;101591.94;4808287;29;45227;-81
2021/07/20 19:00:07;;;;;;;;;19.33;15.00;;;;;26.58;46.20;101590.13;4808247;29;45253;-82
2021/07/20 19:02:33;;;;;;;;;17.00;14.00;;;;;26.57;46.19;101592.88;4807985;29;46329;-81
2021/07/20 19:04:58;;;;;;;;;13.33;12.00;;;;;26.55;46.18;101603.72;4808137;29;45528;-81
2021/07/20 19:07:24;;;;;;;;;16.00;13.00;;;;;26.52;45.83;101598.44;4808119;29;45792;-82
2021/07/20 19:09:49;;;;;;;;;14.67;14.00;;;;;26.53;46.21;101599.31;4808288;29;45430;-82
2021/07/20 19:12:15;;;;;;;;;16.33;14.67;;;;;26.49;45.89;101595.84;4807811;29;46318;-81
2021/07/20 19:14:41;;;;;;;;;19.67;16.67;;;;;26.46;46.62;101599.53;4807836;29;45536;-82
2021/07/20 19:17:06;;;;;;;;;14.33;14.00;;;;;26.47;46.49;101612.09;4808234;29;45323;-82
2021/07/20 19:19:32;;;;;;;;;17.00;14.67;;;;;26.45;47.13;101622.03;4808093;29;45439;-82
2021/07/20 19:21:57;;;;;;;;;16.00;12.67;;;;;26.41;46.74;101615.00;4807761;29;46023;-82
2021/07/20 19:24:22;;;;;;;;;16.33;13.67;;;;;26.42;46.43;101614.06;4807735;29;45332;-82
2021/07/20 19:26:48;;;;;;;;;18.00;15.00;;;;;26.38;47.33;101609.69;4807880;29;45318;-82
2021/07/20 19:29:16;;;;;;;;;18.67;15.00;;;;;26.34;45.98;101606.22;4808022;29;45228;-82
2021/07/20 19:31:41;;;;;;;;;16.67;13.33;;;;;26.35;46.30;101608.00;4807629;29;47132;-82
2021/07/20 19:34:07;;;;;;;;;18.00;15.00;;;;;26.35;46.49;101616.09;4807591;29;45343;-82
2021/07/20 19:36:32;;;;;;;;;19.33;14.33;;;;;26.34;46.66;101622.38;4807904;29;45368;-82
2021/07/20 19:38:57;;;;;;;;;18.00;17.00;;;;;26.32;46.72;101621.56;4807967;29;45362;-82
2021/07/20 19:41:23;;;;;;;;;17.00;14.67;;;;;26.31;47.26;101630.59;4807443;29;45275;-82
2021/07/20 19:43:48;;;;;;;;;13.00;13.00;;;;;26.29;47.26;101628.88;4802681;29;45463;-82
2021/07/20 19:46:14;;;;;;;;;18.33;15.00;;;;;26.27;48.44;101626.22;4807855;29;45376;-84
